Tiempo atmosférico en la estación meteorológica de Munera, Albacete (918 m.)



Fecha
DESCASC
Temp. máxima en grados centígrados (hora)
DESCASC
Temp. mínima en grados centígrados (hora)
DESCASC
Temp. media en grados centígrados
DESCASC
Racha de viento máxima en m/sg (hora)
DESCASC
Velocidad máxima media en intervalos de 10 minutos(hora)
DESCASC
Precipitaciones diarias en mm
DESCASC
Precipitaciones de 00:00 a 06:00 en mm
DESCASC
Precipitaciones de 06:00 a 12:00 en mm
DESCASC
Precipitaciones de 12:00 a 18:00 en mm
DESCASC
Precipitaciones de 18:00 a 24:00 en mm
DESCASC
29-03-2020 14.8 (17:40) -2.5 (08:00) 6.2 5.83 (18:30) 2.22 (15:30) 0.2 0 0.2 0 0
28-03-2020 10.3 (17:10) -1.4 (23:59) 4.5 5.83 (03:40) 2.22 (11:10) 22.2 2.2 17.2 2.8 0
27-03-2020 4.8 (00:30) 0.1 (21:10) 2.5 9.72 (08:30) 3.61 (08:20) 14.4 0 0.8 10.2 3.4
26-03-2020 12.4 (15:50) 1.9 (00:00) 7.1 8.89 (13:00) 3.89 (16:50) 0.2 0.2 0 0 0
25-03-2020 12.4 (16:30) 1.9 (00:00) 7.1 10 (15:40) 3.33 (15:40) 2.6 0 0 0 2.6
24-03-2020 8.5 (13:00) 4.6 (00:00) 6.5 14.44 (10:50) 6.11 (12:10) 5.8 2.6 3 0.2 0
23-03-2020 12.9 (14:00) 4.7 (00:00) 8.8 11.11 (23:10) 4.17 (23:10) 1.4 0.2 0.6 0 0.6
22-03-2020 10.8 (15:30) 2.9 (00:00) 6.9 8.06 (16:20) 3.33 (16:50) 0.2 0.2 0 0 0
21-03-2020 9.9 (09:50) 2.9 (00:00) 6.4 6.94 (06:30) 2.78 (00:20) 3.4 0 0 3.4 0
20-03-2020 14 (14:50) 5.7 (00:00) 9.8 11.11 (15:00) 4.72 (11:20) 0 0 0 0 0
19-03-2020 13.4 (14:10) 5.4 (00:00) 9.4 11.39 (12:40) 4.72 (16:10) 0 0 0 0 0
18-03-2020 12.4 (16:40) 6 (00:00) 9.2 11.94 (10:40) 4.44 (15:10) 0 0 0 0 0
17-03-2020 12.6 (14:30) -0.6 (-00:0) 6 14.17 (22:40) 5.28 (22:40) 0 0 0 0 0
16-03-2020 10.9 (00:00) 0.1 (00:00) 5.5 10 (09:40) 4.72 (09:40) 9.2 5.2 4 0 0
15-03-2020 20.6 (16:20) 4 (00:00) 12.3 7.5 (16:30) 3.33 (17:00) 0 0 0 0 0
14-03-2020 18.8 (16:10) 7.4 (00:00) 13.1 5.56 (00:20) 2.78 (10:40) 0 0 0 0 0
13-03-2020 21.7 (15:20) 10.4 (00:50) 16.1 7.5 (12:30) 3.06 (15:40) 0 0 0 0 0
12-03-2020 26.9 (15:10) 4.9 (00:00) 15.9 5.28 (14:30) 2.5 (15:50) 0 0 0 0 0
11-03-2020 25.3 (16:20) 3.7 (00:00) 14.5 5.28 (14:40) 2.5 (14:40) 0 0 0 0 0
10-03-2020 20.4 (16:50) 0.3 (00:00) 10.3 6.39 (13:40) 3.33 (14:40) 0 0 0 0 0
09-03-2020 15.1 (15:40) 3.5 (00:00) 9.3 9.72 (16:00) 4.44 (12:20) 0 0 0 0 0
08-03-2020 17.4 (16:20) -2.6 (-00:0) 7.4 8.33 (14:40) 3.61 (14:50) 0 0 0 0 0
07-03-2020 12.2 (16:50) -3 (-00:0) 4.6 9.17 (14:00) 4.44 (16:30) 0 0 0 0 0
06-03-2020 10.2 (15:30) 2.6 (00:00) 6.4 16.39 (16:40) 7.22 (12:40) 0.2 0 0 0.2 0
05-03-2020 13.9 (11:50) 6.9 (00:00) 10.4 15 (12:10) 5.83 (12:40) 0.4 0 0 0.4 0
04-03-2020 13.7 (14:30) 8.5 (00:00) 11.1 11.11 (00:30) 4.72 (00:20) 0.2 0 0.2 0 0
03-03-2020 10.7 (23:10) 2.3 (00:00) 6.5 14.44 (15:20) 6.39 (14:00) 0 0 0 0 0
02-03-2020 12.2 (14:10) 3.6 (00:00) 7.9 18.33 (13:50) 8.61 (16:00) 4.2 2 1.2 1 0
01-03-2020 13.9 (15:00) 7 (00:00) 10.4 13.33 (13:50) 5.83 (23:40) 0.4 0.4 0 0 0
29-02-2020 15.6 (15:10) 4.1 (00:00) 9.9 13.33 (11:20) 5.28 (11:40) 0 0 0 0 0

Gráficas

Temp. máximas Temp. mínimas Temp. medias Precipitaciones Rachas de viento máximas Velocidades máximas media en intervalos de 10 minutos

Datos horarios

Fecha y hora oficial Temperatura (ºC) Velocidad del viento (km/h) Dirección del viento Racha (km/h) Dirección de racha Precipitación (mm) Presión (hPa) Tendencia (hPa) Humedad (%)
2020-03-29 23:00:00 4.1 6 Sur 11 Sur 0 -- -- 88
2020-03-29 22:00:00 5.5 5 Sur 10 Sur 0 -- -- 84
2020-03-29 21:00:00 8.4 3 Sur 5 Sur 0 -- -- 73
2020-03-29 20:00:00 12 0 Calma 16 Oeste 0 -- -- 61
2020-03-29 19:00:00 14 4 Noroeste 21 Noroeste 0 -- -- 49
2020-03-29 18:00:00 14.8 7 Norte 17 Noroeste 0 -- -- 46
2020-03-29 17:00:00 14.7 7 Noroeste 16 Norte 0 -- -- 49
2020-03-29 16:00:00 14.4 6 Noroeste 16 Noroeste 0 -- -- 50
2020-03-29 15:00:00 13.5 5 Noroeste 15 Noroeste 0 -- -- 51
2020-03-29 14:00:00 13 8 Norte 17 Norte 0 -- -- 49
2020-03-29 13:00:00 12.6 5 Oeste 17 Sudoeste 0 -- -- 53
2020-03-29 12:00:00 11.4 5 Sudoeste 15 Sudoeste 0 -- -- 67
2020-03-29 11:00:00 8.3 7 Sudoeste 15 Sudoeste 0 -- -- 75
2020-03-29 10:00:00 3.6 5 Sur 11 Sur 0.2 -- -- 100
2020-03-29 09:00:00 -1.5 4 Sur 13 Sur 0 -- -- 100
2020-03-29 08:00:00 -2.5 6 Sur 10 Sur 0 -- -- 99
2020-03-29 07:00:00 -2.2 6 Sur 10 Sur 0 -- -- 99
2020-03-29 06:00:00 -2 4 Sur 9 Sur 0 -- -- 99
2020-03-29 05:00:00 -1.9 5 Sur 10 Sur 0 -- -- 98
2020-03-29 03:00:00 -1.6 4 Sur 8 Sur 0 -- -- 97
2020-03-29 01:00:00 -1.3 5 Sur 10 Sur 0 -- -- 98
2020-03-29 00:00:00 -1.4 4 Sur 8 Sur 0 -- -- 96
2020-03-28 23:00:00 -1 5 Sur 9 Sur 0 -- -- 96
2020-03-28 22:00:00 -0.3 4 Sur 10 Sur 0 -- -- 92
2020-03-28 21:00:00 0.8 4 Sur 10 Sudoeste 0 -- -- 89
2020-03-28 20:00:00 3.3 3 Sur 5 Sur 0 -- -- 82
2020-03-28 19:00:00 7.1 0 Calma 7 Sudeste 0 -- -- 74
2020-03-28 18:00:00 9.1 3 Este 12 Este 0 -- -- 64
2020-03-28 17:00:00 10.1 4 Sudeste 11 Este 0 -- -- 62
2020-03-28 16:00:00 9 5 Este 12 Este 0 -- -- 63
2020-03-28 15:00:00 8.8 6 Este 14 Este 0 -- -- 64
2020-03-28 14:00:00 8.5 4 Este 14 Este 0 -- -- 68
2020-03-28 13:00:00 7.8 6 Sudeste 12 Este 2.8 -- -- 69
2020-03-28 12:00:00 7.2 4 Sudeste 14 Nordeste 7 -- -- 73
2020-03-28 11:00:00 5.9 4 Este 12 Sudeste 5.8 -- -- 80
2020-03-28 10:00:00 4.8 5 Sudeste 14 Sudeste 3.6 -- -- 88
2020-03-28 09:00:00 2.7 3 Sudeste 10 Sudeste 0.6 -- -- 100
2020-03-28 08:00:00 0.4 3 Sudeste 11 Sur 0 -- -- 100
2020-03-28 07:00:00 0.1 4 Sudeste 16 Sudeste 0.2 -- -- 100
2020-03-28 06:00:00 0.4 4 Sudeste 12 Sudeste 0 -- -- 100
2020-03-28 05:00:00 0.5 4 Sudeste 17 Sudeste 0 -- -- 100
2020-03-28 04:00:00 0.8 5 Sudeste 21 Sudeste 0.4 -- -- 100
2020-03-28 03:00:00 0.9 7 Sudeste 19 Sudeste 0.6 -- -- 100
2020-03-28 02:00:00 1.3 2 Sudeste 12 Este 0.6 -- -- 100
2020-03-28 01:00:00 1.1 2 Este 11 Este 0.6 -- -- 100
2020-03-28 00:00:00 0.8 0 Calma 14 Este 0.6 -- -- 100
2020-03-27 23:00:00 0.6 5 Este 19 Este 0.4 -- -- 100
2020-03-27 22:00:00 0.4 6 Este 18 Nordeste 0.2 -- -- 100
2020-03-27 21:00:00 0.2 5 Este 17 Este 0.2 -- -- 99
2020-03-27 20:00:00 0.4 7 Este 19 Este 0.6 -- -- 98
2020-03-27 19:00:00 0.5 5 Sudeste 15 Sudeste 1.4 -- -- 98
2020-03-27 18:00:00 0.6 0 Calma 15 Este 1.2 -- -- 98
2020-03-27 17:00:00 0.6 0 Calma 14 Sudeste 1.4 -- -- 99
2020-03-27 16:00:00 0.5 0 Calma 21 Este 1.8 -- -- 98
2020-03-27 15:00:00 0.4 0 Calma 12 Este 1.6 -- -- 98
2020-03-27 14:00:00 0.6 3 Este 20 Sudeste 2.2 -- -- 97
2020-03-27 13:00:00 0.8 0 Calma 14 Sudeste 2 -- -- 98
2020-03-27 12:00:00 0.5 0 Calma -- -- 0.2 -- -- 98
2020-03-27 11:00:00 0.4 0 Calma 27 Este 0 -- -- 98
2020-03-27 10:00:00 0.8 4 Este 26 Sudeste 0.4 -- -- 96
2020-03-27 09:00:00 2.3 11 Sudeste 35 Este 0.2 -- -- 92
2020-03-27 08:00:00 3 10 Sudeste 31 Sudeste 0 -- -- 92
2020-03-27 07:00:00 3.2 8 Sudeste 27 Este 0 -- -- 91
2020-03-27 06:00:00 3.2 8 Sudeste 25 Sudeste 0 -- -- 91
2020-03-27 05:00:00 3.1 5 Sudeste 22 Sudeste 0 -- -- 90
2020-03-27 04:00:00 3.8 7 Sudeste 25 Sudeste 0 -- -- 81
2020-03-27 03:00:00 3.7 8 Sudeste 26 Este 0 -- -- 80
2020-03-27 02:00:00 4.1 7 Sudeste 25 Sudeste 0 -- -- 81
2020-03-27 01:00:00 4.8 11 Sudeste 24 Este 0 -- -- 82
2020-03-27 00:00:00 4.4 4 Este 12 Este 0 -- -- 83
2020-03-26 23:00:00 2.7 3 Este 8 Este 0 -- -- 86
2020-03-26 22:00:00 2 4 Sur 7 Sur 0 -- -- 85
2020-03-26 21:00:00 3.3 3 Sur 6 Sur 0 -- -- 75
2020-03-26 20:00:00 6.2 2 Sur 5 Norte 0 -- -- 61
2020-03-26 19:00:00 9.8 5 Norte 15 Norte 0 -- -- 43
2020-03-26 18:00:00 11.4 9 Norte 24 Norte 0 -- -- 38
2020-03-26 17:00:00 12 11 Norte 27 Norte 0 -- -- 37
2020-03-26 16:00:00 12.2 13 Norte 32 Norte 0 -- -- 38
2020-03-26 15:00:00 12.2 12 Noroeste 31 Noroeste 0 -- -- 42
2020-03-26 14:00:00 11.2 12 Noroeste 29 Oeste 0 -- -- 52
2020-03-26 13:00:00 10.2 14 Noroeste 32 Noroeste 0 -- -- 47
2020-03-26 12:00:00 9.4 13 Noroeste 25 Noroeste 0 -- -- 57
2020-03-26 11:00:00 8.2 9 Noroeste 23 Noroeste 0 -- -- 64
2020-03-26 10:00:00 7.2 9 Noroeste 22 Noroeste 0 -- -- 78
2020-03-26 09:00:00 7 8 Noroeste 19 Noroeste 0 -- -- 89
2020-03-26 08:00:00 5.8 6 Oeste 18 Oeste 0 -- -- 99
2020-03-26 07:00:00 5 3 Sudoeste 12 Oeste 0 -- -- 99
2020-03-26 06:00:00 4.8 5 Sudoeste 17 Sudoeste 0 -- -- 99
2020-03-26 05:00:00 4.2 6 Sudoeste 13 Oeste 0.2 -- -- 100
2020-03-26 04:00:00 3.7 5 Sudoeste 15 Sudoeste 0 -- -- 99
2020-03-26 03:00:00 3.3 6 Sudoeste 10 Sur 0 -- -- 98
2020-03-26 02:00:00 3.6 5 Sur 9 Sudoeste 0 -- -- 95
2020-03-26 01:00:00 5 5 Sur 9 Sudoeste 0 -- -- 95
2020-03-26 00:00:00 6.1 2 Sur 5 Sur 1.4 -- -- 95
2020-03-25 23:00:00 6.2 2 Este 8 Sudoeste 1.2 -- -- 93
2020-03-25 22:00:00 6.4 3 Sudeste 17 Sudoeste 0 -- -- 84
2020-03-25 21:00:00 6.6 4 Sur 15 Sudeste 0 -- -- 84
2020-03-25 20:00:00 7.7 7 Este 27 Nordeste 0 -- -- 81
2020-03-25 19:00:00 10.2 2 Norte 14 Oeste 0 -- -- 61
2020-03-25 18:00:00 11.5 5 Noroeste 23 Oeste 0 -- -- 53
2020-03-25 17:00:00 12.4 8 Noroeste 17 Noroeste 0 -- -- 55
2020-03-25 16:00:00 11.9 11 Norte 36 Noroeste 0 -- -- 58
2020-03-25 15:00:00 11.3 8 Norte 22 Norte 0 -- -- 63
2020-03-25 14:00:00 10.7 7 Norte 18 Norte 0 -- -- 66
2020-03-25 13:00:00 10.1 3 Nordeste 16 Nordeste 0 -- -- 71
2020-03-25 12:00:00 9.3 7 Nordeste 14 Nordeste 0 -- -- 75
2020-03-25 11:00:00 9.6 4 Este 14 Sudeste 0 -- -- 76
2020-03-25 10:00:00 8.1 5 Sudeste 12 Sur 0 -- -- 77
2020-03-25 09:00:00 4.7 3 Sudeste 12 Este 0 -- -- 100
2020-03-25 08:00:00 2.8 3 Sudeste 12 Sudeste 0 -- -- 100
2020-03-25 07:00:00 2 0 Calma 6 Sudeste 0 -- -- 98
2020-03-25 06:00:00 3.3 4 Sudeste 13 Este 0 -- -- 98
2020-03-25 05:00:00 3.7 2 Sudeste 12 Sudeste 0 -- -- 99
2020-03-25 04:00:00 3.7 4 Este 13 Este 0 -- -- 98
2020-03-25 03:00:00 3.8 4 Sudeste 14 Sudeste 0 -- -- 98
2020-03-25 02:00:00 4.1 4 Este 17 Este 0 -- -- 96
2020-03-25 01:00:00 4.3 6 Este 22 Este 0 -- -- 95
2020-03-25 00:00:00 4.7 8 Este 26 Este 0 -- -- 96
2020-03-24 23:00:00 5.2 9 Este 28 Este 0 -- -- 94
2020-03-24 22:00:00 5.4 9 Este 37 Este 0 -- -- 93
2020-03-24 21:00:00 5.6 8 Este 31 Este 0 -- -- 94
2020-03-24 20:00:00 5.9 11 Este 32 Este 0 -- -- 97
2020-03-24 19:00:00 6.1 9 Este 36 Nordeste 0 -- -- 97
2020-03-24 18:00:00 6.2 11 Este 43 Este 0 -- -- 98
2020-03-24 17:00:00 6.4 16 Este 44 Este 0.2 -- -- 98
2020-03-24 16:00:00 6.6 13 Este 49 Este 0 -- -- 97
2020-03-24 15:00:00 7.3 19 Este 45 Este 0 -- -- 95
2020-03-24 14:00:00 7.8 17 Este 51 Este 0 -- -- 93
2020-03-24 13:00:00 8.5 17 Este 47 Este 0 -- -- 92
2020-03-24 12:00:00 7.3 21 Este 51 Este 0 -- -- 97
2020-03-24 11:00:00 7.3 21 Este 52 Este 0.2 -- -- 97
2020-03-24 10:00:00 7.5 17 Este 35 Este 0.4 -- -- 97
2020-03-24 09:00:00 6.7 15 Este 40 Este 0.2 -- -- 97
2020-03-24 08:00:00 6.3 9 Este 26 Este 1.2 -- -- 98
2020-03-24 07:00:00 5.6 10 Sudeste 28 Sudeste 1 -- -- 97
2020-03-24 06:00:00 6.3 12 Sudeste 38 Sudeste 0.8 -- -- 97
2020-03-24 05:00:00 6.5 14 Sudeste 39 Sudeste 0.4 -- -- 96
2020-03-24 04:00:00 7.1 11 Sudeste 28 Este 0.6 -- -- 97
2020-03-24 03:00:00 7.1 9 Este 27 Este 0.4 -- -- 98
2020-03-24 02:00:00 7.1 5 Este 28 Nordeste 0.2 -- -- 97
2020-03-24 01:00:00 7.1 9 Este 25 Este 0.2 -- -- 96
2020-03-24 00:00:00 7 9 Este 40 Este 0.2 -- -- 97
2020-03-23 23:00:00 7.2 14 Este 36 Sudeste 0.2 -- -- 96
2020-03-23 22:00:00 7.6 13 Este 35 Este 0 -- -- 94
2020-03-23 21:00:00 8 11 Este 33 Sudeste 0.2 -- -- 95
2020-03-23 20:00:00 8.1 11 Este 27 Este 0 -- -- 95
2020-03-23 19:00:00 8 8 Este 37 Nordeste 0 -- -- 93
2020-03-23 18:00:00 9.2 13 Este 36 Este 0 -- -- 85
2020-03-23 17:00:00 12.6 10 Sudeste 25 Sur 0 -- -- 65
2020-03-23 16:00:00 12.2 10 Sudeste 32 Sudeste 0 -- -- 64
2020-03-23 15:00:00 10.7 12 Sudeste 29 Nordeste 0 -- -- 78
2020-03-23 14:00:00 12.9 10 Sudeste 26 Sudeste 0 -- -- 66
2020-03-23 13:00:00 11.5 11 Sudeste 26 Este 0 -- -- 70
2020-03-23 12:00:00 11.4 10 Sudeste 25 Sudeste 0 -- -- 71
2020-03-23 11:00:00 9.9 9 Sudeste 22 Este 0 -- -- 81
2020-03-23 10:00:00 9.5 9 Sudeste 23 Sudeste 0 -- -- 83
2020-03-23 09:00:00 7.1 6 Sudeste 14 Este 0 -- -- 96
2020-03-23 08:00:00 5.9 3 Este 9 Este 0.2 -- -- 98
2020-03-23 07:00:00 5.8 3 Sudeste 12 Sudeste 0.4 -- -- 97
2020-03-23 06:00:00 5.9 4 Sudeste 10 Este 0.2 -- -- 97
2020-03-23 05:00:00 5.7 3 Sudeste 10 Sudeste 0 -- -- 96
2020-03-23 04:00:00 5.8 3 Sudeste 12 Este 0 -- -- 96
2020-03-23 03:00:00 6 4 Sudeste 12 Este 0 -- -- 96
2020-03-23 02:00:00 5.7 3 Este 13 Este 0 -- -- 97
2020-03-23 01:00:00 4.9 2 Este 10 Sudeste 0 -- -- 97
2020-03-23 00:00:00 4.7 3 Sudeste 9 Sur 0 -- -- 95
2020-03-22 23:00:00 5.2 0 Calma 7 Sudeste 0 -- -- 94
2020-03-22 22:00:00 6.1 2 Sudeste 10 Sur 0 -- -- 91
2020-03-22 21:00:00 7.1 2 Sudeste 11 Sudeste 0 -- -- 87
2020-03-22 20:00:00 7.8 3 Sudeste 9 Sur 0 -- -- 84
2020-03-22 19:00:00 8.9 4 Sudeste 18 Sudoeste 0 -- -- 78
2020-03-22 18:00:00 9.8 5 Sudeste 22 Sudeste 0 -- -- 74
2020-03-22 17:00:00 10.1 9 Este 29 Sudeste 0 -- -- 75
2020-03-22 16:00:00 10.7 9 Sudeste 21 Este 0 -- -- 75
2020-03-22 15:00:00 10.1 8 Sudeste 21 Este 0 -- -- 78
2020-03-22 14:00:00 9.3 8 Sudeste 21 Sudeste 0 -- -- 82
2020-03-22 13:00:00 9.4 6 Sudeste 22 Este 0 -- -- 84
2020-03-22 12:00:00 7.6 6 Sudeste 15 Sudeste 0 -- -- 93
2020-03-22 11:00:00 7 5 Sudeste 14 Este 0 -- -- 92
2020-03-22 10:00:00 6.2 4 Sudeste 13 Sudeste 0 -- -- 94
2020-03-22 09:00:00 4.9 0 Calma 5 Este 0 -- -- 100
2020-03-22 08:00:00 3.9 0 Calma 3 Sudoeste 0 -- -- 100
2020-03-22 07:00:00 3.6 0 Calma 5 Este 0 -- -- 100
2020-03-22 06:00:00 3.7 4 Este 12 Este 0 -- -- 99
2020-03-22 05:00:00 3.9 0 Calma 4 Sur 0 -- -- 100
2020-03-22 04:00:00 3.7 0 Calma 6 Sur 0 -- -- 100
2020-03-22 03:00:00 3.2 0 Calma 4 Sudoeste 0.2 -- -- 99
2020-03-22 02:00:00 3.1 0 Calma 3 Sudeste 0 -- -- 98
2020-03-22 01:00:00 3.6 0 Calma 8 Sudoeste 0 -- -- 99
2020-03-22 00:00:00 2.9 3 Sur 11 Sudeste 0 -- -- 98
2020-03-21 23:00:00 3.2 2 Sudeste 13 Sudeste 0 -- -- 98
2020-03-21 22:00:00 3.4 5 Sudeste 13 Sudeste 0 -- -- 98
2020-03-21 21:00:00 3.8 3 Sudeste 12 Sudeste 0 -- -- 96
2020-03-21 20:00:00 4.7 3 Sudeste 9 Sudeste 0 -- -- 94
2020-03-21 19:00:00 5.2 2 Sudeste 6 Sur 0 -- -- 95
2020-03-21 18:00:00 5.3 3 Sudeste 6 Sudeste 1.4 -- -- 93
2020-03-21 17:00:00 5.7 0 Calma 9 Oeste 1.2 -- -- 89
2020-03-21 16:00:00 6.4 3 Oeste 17 Sur 0.6 -- -- 85
2020-03-21 15:00:00 7.6 5 Sudoeste 17 Sudoeste 0.2 -- -- 84
2020-03-21 14:00:00 7.9 7 Oeste 23 Oeste 0 -- -- 86
2020-03-21 13:00:00 7.1 5 Sudoeste 16 Sudoeste 0 -- -- 90
2020-03-21 12:00:00 6.7 4 Sudoeste 17 Oeste 0 -- -- 89
2020-03-21 11:00:00 7.5 7 Sudoeste 19 Oeste 0 -- -- 85
2020-03-21 10:00:00 9.8 9 Sudoeste 22 Sudoeste 0 -- -- 81
2020-03-21 09:00:00 9 5 Sudeste 21 Sur 0 -- -- 83
2020-03-21 08:00:00 7.4 7 Sudeste 17 Sudeste 0 -- -- 89
2020-03-21 07:00:00 7.1 6 Sudeste 25 Sur 0 -- -- 90
2020-03-21 06:00:00 7 5 Este 16 Sudeste 0 -- -- 95
2020-03-21 05:00:00 6.9 6 Sudeste 20 Este 0 -- -- 95
2020-03-21 04:00:00 7 7 Sudeste 21 Este 0 -- -- 95
2020-03-21 03:00:00 7.2 7 Sudeste 22 Sudeste 0 -- -- 95
2020-03-21 02:00:00 7.2 9 Sudeste 24 Sur 0 -- -- 94
2020-03-21 01:00:00 7.4 9 Sudeste 24 Este 0 -- -- 93
2020-03-21 00:00:00 7.6 8 Sudeste 31 Sudeste 0 -- -- 92
2020-03-20 23:00:00 7.5 11 Sudeste 35 Este 0 -- -- 92
2020-03-20 22:00:00 7.4 10 Sudeste 24 Este 0 -- -- 93
2020-03-20 21:00:00 7.6 9 Este 26 Sudeste 0 -- -- 93
2020-03-20 20:00:00 8.1 9 Este 27 Este 0 -- -- 89
2020-03-20 19:00:00 9 12 Este 27 Sudeste 0 -- -- 84
2020-03-20 18:00:00 10.8 10 Sudeste 31 Este 0 -- -- 76
2020-03-20 17:00:00 11.8 11 Este 30 Este 0 -- -- 70
2020-03-20 16:00:00 12.4 12 Sudeste 30 Sudeste 0 -- -- 69
2020-03-20 15:00:00 13.6 13 Sudeste 40 Sudeste 0 -- -- 64
2020-03-20 14:00:00 13.1 14 Sudeste 35 Este 0 -- -- 62
2020-03-20 13:00:00 12.2 13 Sudeste 34 Sudeste 0 -- -- 63
2020-03-20 12:00:00 10.4 15 Sudeste 39 Sudeste 0 -- -- 68
2020-03-20 11:00:00 10.1 12 Sudeste 33 Sudeste 0 -- -- 75
2020-03-20 10:00:00 8.5 10 Sudeste 31 Este 0 -- -- 78
2020-03-20 09:00:00 7.2 11 Sudeste 30 Este 0 -- -- 87
2020-03-20 08:00:00 6 7 Sudeste 18 Sudeste 0 -- -- 85
2020-03-20 07:00:00 5.7 8 Sudeste 19 Sudeste 0 -- -- 89
2020-03-20 06:00:00 6.5 7 Sudeste 15 Sudeste 0 -- -- 92
2020-03-20 05:00:00 6.3 5 Sudeste 14 Sur 0 -- -- 93
2020-03-20 04:00:00 6.4 4 Sudeste 17 Este 0 -- -- 91
2020-03-20 03:00:00 6.6 3 Sudeste 27 Este 0 -- -- 89
2020-03-20 02:00:00 7.2 9 Sudeste 31 Este 0 -- -- 89
2020-03-20 01:00:00 8 11 Sudeste 32 Sudeste 0 -- -- 88
2020-03-20 00:00:00 8.3 10 Sudeste 31 Sudeste 0 -- -- 86
2020-03-19 23:00:00 8.9 8 Sudeste 22 Sudeste 0 -- -- 87
2020-03-19 22:00:00 9 8 Sudeste 20 Sudeste 0 -- -- 89
2020-03-19 21:00:00 9.6 8 Sudeste 24 Sudeste 0 -- -- 85
2020-03-19 20:00:00 9.7 9 Sudeste 31 Sudeste 0 -- -- 77
2020-03-19 19:00:00 10.5 10 Sudeste 30 Sudeste 0 -- -- 75
2020-03-19 18:00:00 11 9 Sudeste 32 Sudeste 0 -- -- 72
2020-03-19 17:00:00 12 13 Sudeste 35 Sudeste 0 -- -- 67
2020-03-19 16:00:00 12.5 14 Sudeste 37 Sudeste 0 -- -- 67
2020-03-19 15:00:00 12.5 11 Este 32 Sur 0 -- -- 66
2020-03-19 14:00:00 13.1 10 Sudeste 34 Este 0 -- -- 65
2020-03-19 13:00:00 12.6 12 Sudeste 41 Este 0 -- -- 65
2020-03-19 12:00:00 11.1 15 Sudeste 35 Este 0 -- -- 70
2020-03-19 11:00:00 9.9 12 Sudeste 32 Sudeste 0 -- -- 79
2020-03-19 10:00:00 8.4 12 Sudeste 27 Sudeste 0 -- -- 87
2020-03-19 09:00:00 6.7 9 Sudeste 28 Este 0 -- -- 94
2020-03-19 08:00:00 5.7 7 Sudeste 21 Sudeste 0 -- -- 97
2020-03-19 07:00:00 5.6 6 Sudeste 22 Sudeste 0 -- -- 96
2020-03-19 06:00:00 5.7 6 Sudeste 23 Sudeste 0 -- -- 95
2020-03-19 05:00:00 5.8 5 Sudeste 30 Sudeste 0 -- -- 94
2020-03-19 04:00:00 5.6 11 Sudeste 27 Sudeste 0 -- -- 95
2020-03-19 03:00:00 5.7 8 Sudeste 25 Este 0 -- -- 94
2020-03-19 02:00:00 5.7 5 Este 24 Sudeste 0 -- -- 94
2020-03-19 01:00:00 5.5 7 Este 26 Este 0 -- -- 92
2020-03-19 00:00:00 6 6 Sudeste 27 Sudeste 0 -- -- 85
2020-03-18 23:00:00 6.6 7 Sudeste 19 Sudeste 0 -- -- 80
2020-03-18 22:00:00 7.3 6 Sudeste 24 Sudeste 0 -- -- 82
2020-03-18 21:00:00 7.9 4 Sudeste 22 Este 0 -- -- 77
2020-03-18 20:00:00 9.4 8 Este 18 Este 0 -- -- 75
2020-03-18 19:00:00 10.7 7 Sudeste 26 Sudeste 0 -- -- 71
2020-03-18 18:00:00 11.8 7 Sudeste 29 Sudeste 0 -- -- 69
2020-03-18 17:00:00 12.2 10 Sudeste 33 Este 0 -- -- 67
2020-03-18 16:00:00 11.7 12 Sudeste 37 Sur 0 -- -- 71
2020-03-18 15:00:00 10.6 14 Sudeste 35 Sudeste 0 -- -- 72
2020-03-18 14:00:00 10.4 13 Sudeste 41 Sudeste 0 -- -- 76
2020-03-18 13:00:00 10.7 13 Sudeste 33 Sudeste 0 -- -- 76
2020-03-18 12:00:00 10.5 14 Sudeste 35 Sudeste 0 -- -- 83
2020-03-18 11:00:00 10.2 11 Sudeste 43 Este 0 -- -- 85
2020-03-18 10:00:00 9.4 14 Sudeste 31 Sudeste 0 -- -- 91
2020-03-18 09:00:00 7.9 9 Sudeste 28 Este 0 -- -- 95
2020-03-18 08:00:00 7.2 13 Este 33 Este 0 -- -- 97
2020-03-18 07:00:00 7.1 12 Este 31 Este 0 -- -- 97
2020-03-18 06:00:00 7.2 8 Este 21 Este 0 -- -- 95
2020-03-18 05:00:00 7.5 5 Sudeste 15 Este 0 -- -- 94
2020-03-18 04:00:00 7.4 5 Sudeste 24 Este 0 -- -- 94
2020-03-18 03:00:00 7.7 9 Este 31 Nordeste 0 -- -- 93
2020-03-18 02:00:00 7.9 9 Este 37 Este 0 -- -- 93
2020-03-18 01:00:00 8 12 Este 36 Este 0 -- -- 94
2020-03-18 00:00:00 8.2 15 Este 40 Este 0 -- -- 95
2020-03-17 23:00:00 8.7 15 Este 51 Este 0 -- -- 95
2020-03-17 22:00:00 9.1 15 Este 39 Nordeste 0 -- -- 97
2020-03-17 21:00:00 9.4 16 Este 42 Este 0 -- -- 96
2020-03-17 20:00:00 9.8 15 Este 42 Este 0 -- -- 95
2020-03-17 19:00:00 10.2 17 Este 35 Este 0 -- -- 94
2020-03-17 18:00:00 10 9 Este 33 Este 0 -- -- 95
2020-03-17 17:00:00 10.3 13 Este 35 Este 0 -- -- 91
2020-03-17 16:00:00 11.5 14 Este 34 Este 0 -- -- 84
2020-03-17 15:00:00 11.9 16 Este 31 Este 0 -- -- 77
2020-03-17 14:00:00 11.7 10 Este 36 Este 0 -- -- 73
2020-03-17 13:00:00 11.2 15 Este 37 Este 0 -- -- 71
2020-03-17 12:00:00 10.2 13 Este 35 Sudeste 0 -- -- 72
2020-03-17 11:00:00 8.8 16 Sudeste 40 Sudeste 0 -- -- 80
2020-03-17 10:00:00 6.7 9 Sudeste 31 Este 0 -- -- 91
2020-03-17 09:00:00 5.3 9 Sudeste 23 Sudeste 0 -- -- 99
2020-03-17 08:00:00 4 3 Nordeste 10 Nordeste 0 -- -- 100
2020-03-17 07:00:00 2.2 2 Norte 6 Norte 0 -- -- 100
2020-03-17 06:00:00 2.6 0 Calma 10 Este 0 -- -- 99
2020-03-17 05:00:00 1.8 0 Calma 4 Este 0 -- -- 99
2020-03-17 04:00:00 1.3 2 Sudeste 10 Este 0 -- -- 98
2020-03-17 03:00:00 0.8 3 Sudeste 10 Este 0 -- -- 98
2020-03-17 02:00:00 0.3 3 Sudeste 10 Este 0 -- -- 98
2020-03-17 01:00:00 0.3 3 Sudeste 12 Sur 0 -- -- 97
2020-03-17 00:00:00 0.1 2 Sur 4 Sur 0 -- -- 95
2020-03-16 23:00:00 1.2 2 Sur 11 Sudeste 0 -- -- 94
2020-03-16 22:00:00 2 2 Este 9 Este 0 -- -- 96
2020-03-16 21:00:00 2.2 2 Sur 10 Este 0 -- -- 93
2020-03-16 20:00:00 3.1 3 Sudeste 16 Sudeste 0 -- -- 90
2020-03-16 19:00:00 4.5 5 Este 18 Este 0 -- -- 89
2020-03-16 18:00:00 5 5 Norte 9 Nordeste 0 -- -- 83
2020-03-16 17:00:00 5.1 3 Norte 12 Norte 0 -- -- 82
2020-03-16 16:00:00 5.3 5 Norte 11 Norte 0 -- -- 79
2020-03-16 15:00:00 4.6 6 Norte 21 Norte 0 -- -- 79
2020-03-16 14:00:00 7 8 Sudoeste 22 Oeste 0 -- -- 68
2020-03-16 13:00:00 5.8 5 Sudoeste 18 Sur 0 -- -- 71
2020-03-16 12:00:00 5.7 10 Sudoeste 35 Sur 0 -- -- 76
2020-03-16 11:00:00 3.6 15 Sudoeste 36 Sur 0 -- -- 88
2020-03-16 10:00:00 2.1 14 Sudoeste 36 Sudoeste 0.2 -- -- 96
2020-03-16 09:00:00 1.6 9 Sudoeste 22 Sudoeste 0.8 -- -- 97
2020-03-16 08:00:00 1.5 6 Sudoeste 22 Oeste 1.2 -- -- 94
2020-03-16 07:00:00 3.8 6 Oeste 26 Oeste 1.8 -- -- 93
2020-03-16 06:00:00 5.5 10 Oeste 25 Oeste 3.2 -- -- 91
2020-03-16 05:00:00 8.9 6 Oeste 24 Sur 1.4 -- -- 92
2020-03-16 04:00:00 9.7 4 Sur 17 Sudeste 0.6 -- -- 85
2020-03-16 03:00:00 9.6 4 Sudeste 11 Este 0 -- -- 82
2020-03-16 02:00:00 8.4 0 Calma 5 Sur 0 -- -- 80
2020-03-16 01:00:00 8.9 2 Sur 5 Oeste 0 -- -- 74
2020-03-16 00:00:00 10.9 3 Oeste 14 Noroeste 0 -- -- 71
2020-03-15 23:00:00 12.2 7 Oeste 25 Sudoeste 0 -- -- 66
2020-03-15 22:00:00 13.1 9 Sudoeste 26 Sudoeste 0 -- -- 68
2020-03-15 21:00:00 12.8 7 Sudoeste 21 Sudoeste 0 -- -- 59
2020-03-15 20:00:00 13.4 9 Sudoeste 25 Sudoeste 0 -- -- 54
2020-03-15 19:00:00 15.8 10 Sudoeste 26 Sudoeste 0 -- -- 49
2020-03-15 18:00:00 18.2 10 Sudoeste 26 Oeste 0 -- -- 45
2020-03-15 17:00:00 19.9 12 Sudoeste 27 Sudoeste 0 -- -- 39
2020-03-15 16:00:00 20 10 Sudoeste 23 Sudoeste 0 -- -- 41
2020-03-15 15:00:00 20.1 8 Sudoeste 22 Sur 0 -- -- 44
2020-03-15 14:00:00 20.1 9 Sudoeste 22 Sudoeste 0 -- -- 52
2020-03-15 13:00:00 18 6 Sudoeste 24 Sudoeste 0 -- -- 63
2020-03-15 12:00:00 18.4 9 Sudoeste 22 Sudoeste 0 -- -- 61
2020-03-15 11:00:00 16.6 7 Sudoeste 22 Sudoeste 0 -- -- 67
2020-03-15 10:00:00 13.6 4 Sur 13 Sur 0 -- -- 77
2020-03-15 09:00:00 9 4 Sur 8 Sur 0 -- -- 100
2020-03-15 08:00:00 5.7 0 Calma 4 Sur 0 -- -- 97
2020-03-15 07:00:00 5.2 0 Calma 3 Sur 0 -- -- 97
2020-03-15 06:00:00 4.3 3 Sur 6 Sur 0 -- -- 96
2020-03-15 05:00:00 4.2 0 Calma 4 Sur 0 -- -- 94
2020-03-15 04:00:00 4.7 2 Sur 4 Sur 0 -- -- 92
2020-03-15 03:00:00 5.7 2 Sur 4 Sudoeste 0 -- -- 90
2020-03-15 02:00:00 7.2 2 Sur 6 Sudoeste 0 -- -- 87
2020-03-15 01:00:00 8.6 4 Sur 9 Sur 0 -- -- 86
2020-03-15 00:00:00 8.9 3 Sur 7 Sur 0 -- -- 87
2020-03-14 23:00:00 8.3 3 Sur 8 Sur 0 -- -- 87
2020-03-14 22:00:00 8.2 3 Sur 5 Sur 0 -- -- 83
2020-03-14 21:00:00 9.6 3 Sur 8 Sudoeste 0 -- -- 77
2020-03-14 20:00:00 12.4 0 Calma 4 Sudeste 0 -- -- 71
2020-03-14 19:00:00 16.1 0 Calma 9 Este 0 -- -- 61
2020-03-14 18:00:00 17.6 5 Nordeste 14 Nordeste 0 -- -- 55
2020-03-14 17:00:00 17.8 3 Nordeste 14 Nordeste 0 -- -- 53
2020-03-14 16:00:00 18.5 6 Nordeste 13 Este 0 -- -- 55
2020-03-14 15:00:00 17.8 5 Norte 13 Nordeste 0 -- -- 56
2020-03-14 14:00:00 18.1 5 Norte 15 Noroeste 0 -- -- 57
2020-03-14 13:00:00 17.5 6 Norte 12 Noroeste 0 -- -- 60
2020-03-14 12:00:00 16.1 5 Noroeste 14 Norte 0 -- -- 67
2020-03-14 11:00:00 14 8 Norte 18 Noroeste 0 -- -- 79
2020-03-14 10:00:00 14.4 5 Oeste 17 Sudoeste 0 -- -- 80
2020-03-14 09:00:00 10.9 7 Sudoeste 15 Sudoeste 0 -- -- 97
2020-03-14 08:00:00 7.7 3 Sur 9 Sur 0 -- -- 96
2020-03-14 07:00:00 7.5 4 Sur 9 Sudoeste 0 -- -- 94
2020-03-14 06:00:00 8.1 5 Sur 8 Sur 0 -- -- 92
2020-03-14 05:00:00 9 4 Sudoeste 15 Sudoeste 0 -- -- 89
2020-03-14 04:00:00 9.3 6 Sudoeste 14 Sudoeste 0 -- -- 89
2020-03-14 03:00:00 9.5 6 Sudoeste 18 Sudoeste 0 -- -- 82
2020-03-14 02:00:00 10.2 6 Sur 16 Sudoeste 0 -- -- 76
2020-03-14 01:00:00 10.9 5 Sudoeste 20 Sudoeste 0 -- -- 68
2020-03-14 00:00:00 11.2 8 Sudoeste 18 Sur 0 -- -- 65
2020-03-13 23:00:00 11.9 6 Sur 18 Sudoeste 0 -- -- 63
2020-03-13 22:00:00 12.9 8 Sudoeste 19 Sudoeste 0 -- -- 61
2020-03-13 21:00:00 12.2 0 Calma 10 Este 0 -- -- 65
2020-03-13 20:00:00 15.1 3 Este 12 Nordeste 0 -- -- 58
2020-03-13 19:00:00 18.1 4 Sudeste 16 Este 0 -- -- 50
2020-03-13 18:00:00 20.2 6 Sudeste 18 Este 0 -- -- 45
2020-03-13 17:00:00 21.2 8 Sudeste 21 Sudeste 0 -- -- 43
2020-03-13 16:00:00 21.6 10 Sudeste 26 Este 0 -- -- 43
2020-03-13 15:00:00 21.2 8 Sudeste 22 Sudeste 0 -- -- 46
2020-03-13 14:00:00 20.2 10 Sudeste 25 Este 0 -- -- 48
2020-03-13 13:00:00 18.7 8 Este 27 Nordeste 0 -- -- 52
2020-03-13 12:00:00 17.3 7 Este 21 Nordeste 0 -- -- 56
2020-03-13 11:00:00 15.9 6 Nordeste 15 Nordeste 0 -- -- 63
2020-03-13 10:00:00 15.3 5 Nordeste 13 Sudoeste 0 -- -- 62
2020-03-13 09:00:00 12.6 6 Sudoeste 14 Sudoeste 0 -- -- 71
2020-03-13 08:00:00 11.5 8 Sur 16 Sur 0 -- -- 72
2020-03-13 07:00:00 11 7 Sur 14 Sur 0 -- -- 73
2020-03-13 06:00:00 10.6 5 Sur 15 Sur 0 -- -- 74
2020-03-13 05:00:00 10.8 6 Sur 21 Sudoeste 0 -- -- 75
2020-03-13 04:00:00 11.3 8 Sudoeste 19 Sudoeste 0 -- -- 74
2020-03-13 03:00:00 11.1 7 Sur 18 Sudoeste 0 -- -- 68
2020-03-13 02:00:00 11.2 6 Sur 13 Sur 0 -- -- 66
2020-03-13 01:00:00 10.4 7 Sur 11 Sur 0 -- -- 69
2020-03-13 00:00:00 10.5 7 Sur 12 Sur 0 -- -- 71
2020-03-12 23:00:00 10.2 5 Sur 9 Sur 0 -- -- 71
2020-03-12 22:00:00 11.3 4 Sur 7 Sur 0 -- -- 66
2020-03-12 21:00:00 13.3 4 Sur 11 Sur 0 -- -- 61
2020-03-12 20:00:00 16.5 4 Sur 7 Sur 0 -- -- 52
2020-03-12 19:00:00 21.4 4 Noroeste 11 Norte 0 -- -- 39
2020-03-12 18:00:00 23.9 4 Noroeste 16 Noroeste 0 -- -- 36
2020-03-12 17:00:00 25.3 5 Noroeste 17 Noroeste 0 -- -- 32
2020-03-12 16:00:00 25.6 9 Norte 19 Noroeste 0 -- -- 31
2020-03-12 15:00:00 26.5 6 Oeste 19 Sur 0 -- -- 28
2020-03-12 14:00:00 26.4 4 Sudoeste 18 Sur 0 -- -- 27
2020-03-12 13:00:00 26 6 Sur 18 Sur 0 -- -- 29
2020-03-12 12:00:00 25 5 Sur 14 Sur 0 -- -- 33
2020-03-12 11:00:00 23.3 5 Sudeste 14 Sudeste 0 -- -- 36
2020-03-12 10:00:00 18 0 Calma 8 Sur 0 -- -- 58
2020-03-12 09:00:00 8.9 5 Sur 10 Sur 0 -- -- 87
2020-03-12 08:00:00 5.5 6 Sur 11 Sur 0 -- -- 88
2020-03-12 07:00:00 5 6 Sur 10 Sudoeste 0 -- -- 87
2020-03-12 06:00:00 6.1 4 Sur 12 Sur 0 -- -- 82
2020-03-12 05:00:00 7.7 7 Sudoeste 13 Sur 0 -- -- 78
2020-03-12 04:00:00 6.8 6 Sur 12 Sur 0 -- -- 82
2020-03-12 03:00:00 6.3 4 Sur 8 Sudoeste 0 -- -- 82
2020-03-12 02:00:00 6.6 5 Sur 10 Sudoeste 0 -- -- 80
2020-03-12 01:00:00 7.4 6 Sur 10 Sur 0 -- -- 78
2020-03-12 00:00:00 7.5 4 Sur 12 Sur 0 -- -- 76
2020-03-11 23:00:00 8 6 Sur 11 Sudoeste 0 -- -- 75
2020-03-11 22:00:00 8.9 6 Sur 11 Sur 0 -- -- 71
2020-03-11 21:00:00 10.8 5 Sur 9 Sur 0 -- -- 63
2020-03-11 20:00:00 14 5 Sur 8 Sur 0 -- -- 54
2020-03-11 19:00:00 19.1 0 Calma 5 Norte 0 -- -- 44
2020-03-11 18:00:00 23.5 3 Norte 10 Noroeste 0 -- -- 32
2020-03-11 17:00:00 24.7 4 Nordeste 15 Norte 0 -- -- 28
2020-03-11 16:00:00 24.9 8 Norte 17 Norte 0 -- -- 29
2020-03-11 15:00:00 24.8 7 Norte 19 Noroeste 0 -- -- 33
2020-03-11 14:00:00 23.9 4 Nordeste 13 Norte 0 -- -- 36
2020-03-11 13:00:00 23 6 Norte 14 Norte 0 -- -- 36
2020-03-11 12:00:00 21.9 4 Norte 10 Oeste 0 -- -- 42
2020-03-11 11:00:00 19.9 2 Sudoeste 8 Noroeste 0 -- -- 50
2020-03-11 10:00:00 15.9 3 Este 5 Sudeste 0 -- -- 67
2020-03-11 09:00:00 6.7 0 Calma 5 Sur 0 -- -- 98
2020-03-11 08:00:00 3.7 4 Sur 8 Sur 0 -- -- 92
2020-03-11 07:00:00 4.1 4 Sur 10 Sur 0 -- -- 91
2020-03-11 06:00:00 3.8 6 Sur 10 Sudoeste 0 -- -- 90
2020-03-11 05:00:00 4 6 Sur 9 Sur 0 -- -- 88
2020-03-11 04:00:00 4.6 5 Sur 13 Sur 0 -- -- 85
2020-03-11 03:00:00 5 4 Sur 11 Sur 0 -- -- 84
2020-03-11 02:00:00 5.8 5 Sur 14 Sur 0 -- -- 82
2020-03-11 01:00:00 5.5 3 Sur 11 Sur 0 -- -- 81
2020-03-11 00:00:00 6.6 5 Sur 12 Sur 0 -- -- 77
2020-03-10 23:00:00 8 6 Sur 11 Sur 0 -- -- 73
2020-03-10 22:00:00 8.9 6 Sur 13 Sudoeste 0 -- -- 69
2020-03-10 21:00:00 9.7 6 Sur 10 Sur 0 -- -- 64
2020-03-10 20:00:00 13.4 2 Sur 8 Sudoeste 0 -- -- 53
2020-03-10 19:00:00 17.5 4 Noroeste 13 Oeste 0 -- -- 43
2020-03-10 18:00:00 19.2 6 Noroeste 19 Noroeste 0 -- -- 39
2020-03-10 17:00:00 20.2 8 Noroeste 18 Noroeste 0 -- -- 36
2020-03-10 16:00:00 19.1 9 Noroeste 22 Noroeste 0 -- -- 40
2020-03-10 15:00:00 18.9 10 Noroeste 22 Noroeste 0 -- -- 41
2020-03-10 14:00:00 17.6 9 Norte 23 Noroeste 0 -- -- 42
2020-03-10 13:00:00 17 8 Noroeste 22 Noroeste 0 -- -- 44
2020-03-10 12:00:00 15.2 8 Noroeste 17 Oeste 0 -- -- 45
2020-03-10 11:00:00 12.8 5 Noroeste 12 Noroeste 0 -- -- 48
2020-03-10 10:00:00 10.5 3 Oeste 9 Noroeste 0 -- -- 58
2020-03-10 09:00:00 3.7 3 Sur 8 Sur 0 -- -- 84
2020-03-10 08:00:00 0.4 5 Sur 9 Sur 0 -- -- 87
2020-03-10 07:00:00 0.8 4 Sur 6 Sur 0 -- -- 83
2020-03-10 06:00:00 1.6 4 Sur 8 Sur 0 -- -- 81
2020-03-10 05:00:00 2.7 0 Calma 5 Sur 0 -- -- 75
2020-03-10 04:00:00 4.2 0 Calma 10 Norte 0 -- -- 71
2020-03-10 03:00:00 5.8 2 Norte 18 Norte 0 -- -- 65
2020-03-10 02:00:00 6.5 8 Norte 14 Norte 0 -- -- 63
2020-03-10 01:00:00 6.9 4 Norte 21 Norte 0 -- -- 61
2020-03-10 00:00:00 7.5 7 Noroeste 18 Noroeste 0 -- -- 58
2020-03-09 23:00:00 8.2 3 Norte 14 Norte 0 -- -- 55
2020-03-09 22:00:00 8.9 3 Noroeste 15 Norte 0 -- -- 53
2020-03-09 21:00:00 9.3 5 Noroeste 15 Noroeste 0 -- -- 50
2020-03-09 20:00:00 10.7 4 Noroeste 15 Noroeste 0 -- -- 45
2020-03-09 19:00:00 12.5 7 Noroeste 26 Noroeste 0 -- -- 40
2020-03-09 18:00:00 13.7 14 Noroeste 30 Oeste 0 -- -- 41
2020-03-09 17:00:00 14.6 15 Noroeste 32 Noroeste 0 -- -- 39
2020-03-09 16:00:00 14.8 16 Noroeste 35 Oeste 0 -- -- 38
2020-03-09 15:00:00 14.3 12 Noroeste 32 Norte 0 -- -- 43
2020-03-09 14:00:00 13.8 12 Oeste 30 Noroeste 0 -- -- 45
2020-03-09 13:00:00 12.6 12 Noroeste 30 Noroeste 0 -- -- 51
2020-03-09 12:00:00 11.8 10 Oeste 31 Noroeste 0 -- -- 57
2020-03-09 11:00:00 10.2 10 Noroeste 24 Noroeste 0 -- -- 63
2020-03-09 10:00:00 8.6 8 Noroeste 19 Oeste 0 -- -- 74
2020-03-09 09:00:00 6.3 4 Oeste 15 Noroeste 0 -- -- 83
2020-03-09 08:00:00 4.4 5 Oeste 16 Oeste 0 -- -- 89
2020-03-09 07:00:00 4.3 4 Oeste 13 Oeste 0 -- -- 88
2020-03-09 06:00:00 5.1 4 Oeste 14 Oeste 0 -- -- 86
2020-03-09 05:00:00 5.1 4 Oeste 14 Noroeste 0 -- -- 85
2020-03-09 04:00:00 5.6 3 Oeste 15 Oeste 0 -- -- 84
2020-03-09 03:00:00 3.7 2 Sudoeste 11 Oeste 0 -- -- 80
2020-03-09 02:00:00 6.3 2 Oeste 10 Oeste 0 -- -- 73
2020-03-09 01:00:00 7.7 4 Oeste 14 Noroeste 0 -- -- 67
2020-03-09 00:00:00 7.8 3 Oeste 11 Oeste 0 -- -- 64
2020-03-08 23:00:00 9.3 4 Oeste 18 Oeste 0 -- -- 56
2020-03-08 22:00:00 10.5 5 Noroeste 15 Oeste 0 -- -- 52
2020-03-08 21:00:00 11.9 5 Noroeste 15 Noroeste 0 -- -- 49
2020-03-08 20:00:00 11.7 3 Sudoeste 12 Oeste 0 -- -- 48
2020-03-08 19:00:00 13.2 4 Oeste 23 Noroeste 0 -- -- 43
2020-03-08 18:00:00 14.8 7 Noroeste 22 Oeste 0 -- -- 37
2020-03-08 17:00:00 16.6 11 Noroeste 26 Oeste 0 -- -- 30
2020-03-08 16:00:00 17.2 10 Oeste 26 Sudoeste 0 -- -- 34
2020-03-08 15:00:00 16.9 12 Noroeste 30 Noroeste 0 -- -- 37
2020-03-08 14:00:00 16.1 10 Oeste 26 Oeste 0 -- -- 43
2020-03-08 13:00:00 15.3 10 Oeste 22 Oeste 0 -- -- 45
2020-03-08 12:00:00 13.7 9 Oeste 21 Oeste 0 -- -- 53
2020-03-08 11:00:00 12.1 9 Oeste 21 Sudoeste 0 -- -- 58
2020-03-08 10:00:00 9.1 6 Oeste 15 Oeste 0 -- -- 71
2020-03-08 09:00:00 1.4 4 Sur 9 Sur 0 -- -- 100
2020-03-08 08:00:00 -2.3 3 Sur 9 Sur 0 -- -- 96
2020-03-08 07:00:00 -2.3 3 Sur 7 Sur 0 -- -- 95
2020-03-08 06:00:00 -2.2 0 Calma 8 Sudoeste 0 -- -- 94
2020-03-08 05:00:00 -1.8 3 Sur 7 Sur 0 -- -- 93
2020-03-08 04:00:00 -1.3 5 Sur 10 Sur 0 -- -- 93
2020-03-08 03:00:00 -0.6 4 Sur 6 Sur 0 -- -- 89
2020-03-08 02:00:00 0.6 3 Sur 8 Sur 0 -- -- 87
2020-03-08 01:00:00 1.4 3 Sur 6 Sur 0 -- -- 83
2020-03-08 00:00:00 3.3 3 Oeste 9 Oeste 0 -- -- 77
2020-03-07 23:00:00 6.4 2 Sudoeste 15 Noroeste 0 -- -- 68
2020-03-07 22:00:00 7.4 6 Noroeste 18 Norte 0 -- -- 66
2020-03-07 21:00:00 8 9 Noroeste 15 Noroeste 0 -- -- 65
2020-03-07 20:00:00 8.2 3 Oeste 19 Noroeste 0 -- -- 63
2020-03-07 19:00:00 10.3 5 Noroeste 23 Noroeste 0 -- -- 56
2020-03-07 18:00:00 11.7 12 Norte 27 Norte 0 -- -- 52
2020-03-07 17:00:00 12.2 12 Norte 29 Norte 0 -- -- 50
2020-03-07 16:00:00 11.7 14 Norte 27 Norte 0 -- -- 50
2020-03-07 15:00:00 11.1 14 Noroeste 29 Noroeste 0 -- -- 51
2020-03-07 14:00:00 10.6 13 Norte 33 Noroeste 0 -- -- 52
2020-03-07 13:00:00 10 13 Noroeste 30 Noroeste 0 -- -- 52
2020-03-07 12:00:00 8.9 8 Noroeste 24 Oeste 0 -- -- 53
2020-03-07 11:00:00 7.2 8 Noroeste 16 Noroeste 0 -- -- 59
2020-03-07 10:00:00 4.6 6 Noroeste 15 Noroeste 0 -- -- 66
2020-03-07 09:00:00 0.5 4 Oeste 12 Oeste 0 -- -- 85
2020-03-07 08:00:00 -2.9 2 Sur 6 Sur 0 -- -- 91
2020-03-07 07:00:00 -3 3 Sur 7 Sudoeste 0 -- -- 88
2020-03-07 06:00:00 -2.5 2 Sur 9 Sur 0 -- -- 85
2020-03-07 05:00:00 -1.3 3 Sur 8 Sudoeste 0 -- -- 81
2020-03-07 04:00:00 0.9 2 Sur 14 Noroeste 0 -- -- 73
2020-03-07 03:00:00 0.7 4 Noroeste 10 Oeste 0 -- -- 76
2020-03-07 02:00:00 1.1 3 Oeste 12 Oeste 0 -- -- 73
2020-03-07 01:00:00 1.4 4 Noroeste 9 Noroeste 0 -- -- 71
2020-03-07 00:00:00 2.8 2 Oeste 14 Noroeste 0 -- -- 60
2020-03-06 23:00:00 3.9 4 Noroeste 20 Noroeste 0 -- -- 56
2020-03-06 22:00:00 4.9 6 Noroeste 16 Noroeste 0 -- -- 55
2020-03-06 21:00:00 5.7 5 Noroeste 19 Noroeste 0 -- -- 56
2020-03-06 20:00:00 6.5 8 Norte 23 Noroeste 0 -- -- 51
2020-03-06 19:00:00 7.7 11 Noroeste 40 Noroeste 0 -- -- 47
2020-03-06 18:00:00 8.3 19 Noroeste 46 Noroeste 0 -- -- 45
2020-03-06 17:00:00 9.5 22 Noroeste 59 Noroeste 0 -- -- 44
2020-03-06 16:00:00 9.8 18 Noroeste 47 Noroeste 0 -- -- 45
2020-03-06 15:00:00 9.8 22 Noroeste 51 Noroeste 0 -- -- 48
2020-03-06 14:00:00 8.5 18 Noroeste 49 Noroeste 0 -- -- 47
2020-03-06 13:00:00 8.1 19 Noroeste 54 Noroeste 0.2 -- -- 56
2020-03-06 12:00:00 6.4 18 Noroeste 51 Oeste 0 -- -- 86
2020-03-06 11:00:00 7.2 21 Oeste 46 Oeste 0 -- -- 80
2020-03-06 10:00:00 5.1 17 Oeste 43 Oeste 0 -- -- 91
2020-03-06 09:00:00 4.2 15 Oeste 38 Oeste 0 -- -- 93
2020-03-06 08:00:00 2.9 15 Oeste 38 Oeste 0 -- -- 95
2020-03-06 07:00:00 2.6 10 Sudoeste 28 Oeste 0 -- -- 94
2020-03-06 06:00:00 2.9 8 Sudoeste 27 Sudoeste 0 -- -- 93
2020-03-06 05:00:00 3.4 8 Oeste 24 Oeste 0 -- -- 92
2020-03-06 04:00:00 4.2 10 Oeste 26 Noroeste 0 -- -- 90
2020-03-06 03:00:00 5.5 9 Oeste 30 Sudoeste 0 -- -- 88
2020-03-06 02:00:00 6 9 Sudoeste 32 Sudoeste 0 -- -- 88
2020-03-06 01:00:00 6.7 13 Oeste 37 Sudoeste 0 -- -- 86
2020-03-06 00:00:00 6.9 15 Oeste 33 Oeste 0 -- -- 84
2020-03-05 23:00:00 7.2 14 Oeste 32 Sudoeste 0 -- -- 80
2020-03-05 22:00:00 7.7 15 Sudoeste 33 Oeste 0 -- -- 78
2020-03-05 21:00:00 8.2 13 Sudoeste 36 Oeste 0 -- -- 76
2020-03-05 20:00:00 9.1 11 Sudoeste 31 Oeste 0 -- -- 72
2020-03-05 19:00:00 10.7 12 Oeste 41 Oeste 0 -- -- 68
2020-03-05 18:00:00 11.6 13 Oeste 44 Noroeste 0 -- -- 64
2020-03-05 17:00:00 12.6 13 Oeste 44 Oeste 0 -- -- 63
2020-03-05 16:00:00 12.4 21 Oeste 50 Oeste 0.2 -- -- 77
2020-03-05 15:00:00 10.5 11 Oeste 42 Sudoeste 0.2 -- -- 91
2020-03-05 14:00:00 11 14 Sudoeste 44 Oeste 0 -- -- 86
2020-03-05 13:00:00 13.5 20 Oeste 54 Oeste 0 -- -- 69
2020-03-05 12:00:00 13.8 20 Oeste 52 Sudoeste 0 -- -- 66
2020-03-05 11:00:00 11.9 17 Oeste 49 Sudoeste 0 -- -- 73
2020-03-05 10:00:00 10.6 14 Oeste 36 Oeste 0 -- -- 84
2020-03-05 09:00:00 9.2 13 Sudoeste 34 Oeste 0 -- -- 89
2020-03-05 08:00:00 8.2 10 Sudoeste 26 Sudoeste 0 -- -- 90
2020-03-05 07:00:00 8.2 9 Sudoeste 25 Oeste 0 -- -- 91
2020-03-05 06:00:00 8.5 7 Sudoeste 23 Sudoeste 0 -- -- 89
2020-03-05 05:00:00 8.7 7 Sudoeste 24 Sudoeste 0 -- -- 86
2020-03-05 04:00:00 9.2 9 Sudoeste 25 Sudoeste 0 -- -- 84
2020-03-05 03:00:00 9.1 8 Sudoeste 21 Sudoeste 0 -- -- 81
2020-03-05 02:00:00 9 4 Sudoeste 15 Sudoeste 0 -- -- 82
2020-03-05 01:00:00 8.8 6 Sudoeste 18 Sur 0 -- -- 82
2020-03-05 00:00:00 8.8 8 Sudoeste 22 Sudoeste 0 -- -- 81
2020-03-04 23:00:00 8.8 8 Sudoeste 25 Sudoeste 0 -- -- 81
2020-03-04 22:00:00 8.5 6 Sudoeste 17 Sudoeste 0 -- -- 82
2020-03-04 21:00:00 9.4 8 Sudoeste 29 Sudoeste 0 -- -- 79
2020-03-04 20:00:00 10.5 8 Sudoeste 21 Oeste 0 -- -- 75
2020-03-04 19:00:00 11.3 8 Sudoeste 24 Sudoeste 0 -- -- 72
2020-03-04 18:00:00 12.2 9 Oeste 27 Oeste 0 -- -- 70
2020-03-04 17:00:00 12.7 11 Oeste 28 Oeste 0 -- -- 68
2020-03-04 16:00:00 12.8 10 Oeste 28 Oeste 0 -- -- 67
2020-03-04 15:00:00 13.4 12 Oeste 33 Oeste 0 -- -- 67
2020-03-04 14:00:00 12.2 10 Oeste 33 Oeste 0 -- -- 75
2020-03-04 13:00:00 11.2 13 Oeste 31 Oeste 0 -- -- 77
2020-03-04 12:00:00 11.2 10 Oeste 27 Oeste 0 -- -- 83
2020-03-04 11:00:00 10.3 10 Oeste 24 Oeste 0 -- -- 90
2020-03-04 10:00:00 10 8 Oeste 26 Oeste 0 -- -- 96
2020-03-04 09:00:00 9.7 8 Oeste 27 Oeste 0.2 -- -- 96
2020-03-04 08:00:00 9.7 11 Oeste 27 Noroeste 0 -- -- 96
2020-03-04 07:00:00 9.8 9 Oeste 26 Oeste 0 -- -- 96
2020-03-04 06:00:00 10.2 13 Oeste 33 Oeste 0 -- -- 93
2020-03-04 05:00:00 10.3 11 Oeste 33 Oeste 0 -- -- 93
2020-03-04 04:00:00 10.3 13 Oeste 35 Sudoeste 0 -- -- 93
2020-03-04 03:00:00 10.5 12 Oeste 33 Oeste 0 -- -- 93
2020-03-04 02:00:00 10.6 11 Oeste 38 Oeste 0 -- -- 92
2020-03-04 01:00:00 10.7 13 Oeste 40 Oeste 0 -- -- 91
2020-03-04 00:00:00 10.7 14 Oeste 40 Oeste 0 -- -- 92
2020-03-03 23:00:00 10.6 17 Oeste 43 Oeste 0 -- -- 92
2020-03-03 22:00:00 10.5 15 Oeste 39 Oeste 0 -- -- 90
2020-03-03 21:00:00 10.4 14 Oeste 40 Oeste 0 -- -- 88
2020-03-03 20:00:00 10.5 15 Oeste 35 Oeste 0 -- -- 87
2020-03-03 19:00:00 10.5 12 Sudoeste 38 Sudoeste 0 -- -- 86
2020-03-03 18:00:00 10.6 13 Sudoeste 39 Oeste 0 -- -- 84
2020-03-03 17:00:00 10.3 16 Oeste 48 Oeste 0 -- -- 84
2020-03-03 16:00:00 9.9 19 Oeste 52 Sudoeste 0 -- -- 83
2020-03-03 15:00:00 10.2 18 Oeste 48 Oeste 0 -- -- 79
2020-03-03 14:00:00 10.1 23 Oeste 52 Oeste 0 -- -- 76
2020-03-03 13:00:00 10.2 17 Sudoeste 49 Oeste 0 -- -- 72
2020-03-03 12:00:00 9.3 17 Sudoeste 43 Sudoeste 0 -- -- 75
2020-03-03 11:00:00 7.5 17 Sudoeste 40 Sudoeste 0 -- -- 82
2020-03-03 10:00:00 5 10 Sudoeste 35 Sudoeste 0 -- -- 88
2020-03-03 09:00:00 4.5 10 Sudoeste 35 Oeste 0 -- -- 90
2020-03-03 08:00:00 3.6 9 Sudoeste 23 Oeste 0 -- -- 92
2020-03-03 07:00:00 3.5 8 Sudoeste 26 Oeste 0 -- -- 90
2020-03-03 06:00:00 3.1 8 Sudoeste 28 Oeste 0 -- -- 91
2020-03-03 05:00:00 2.8 10 Sudoeste 32 Oeste 0 -- -- 88
2020-03-03 04:00:00 2.3 8 Sudoeste 22 Oeste 0 -- -- 88
2020-03-03 03:00:00 2.7 7 Sudoeste 28 Sudoeste 0 -- -- 88
2020-03-03 02:00:00 3.2 7 Sudoeste 20 Sudoeste 0 -- -- 88
2020-03-03 01:00:00 3.8 7 Sudoeste 22 Oeste 0 -- -- 84
2020-03-03 00:00:00 3.8 4 Sudoeste 21 Oeste 0 -- -- 75
2020-03-02 23:00:00 3.8 7 Oeste 18 Oeste 0 -- -- 74
2020-03-02 22:00:00 3.7 5 Oeste 17 Noroeste 0 -- -- 71
2020-03-02 21:00:00 4.6 6 Noroeste 24 Oeste 0 -- -- 70
2020-03-02 20:00:00 5.2 8 Noroeste 32 Norte 0 -- -- 70
2020-03-02 19:00:00 5.9 14 Noroeste 41 Noroeste 0 -- -- 70
2020-03-02 18:00:00 5.5 12 Noroeste 42 Noroeste 1 -- -- 85
2020-03-02 17:00:00 9.8 21 Oeste 63 Oeste 0 -- -- 60
2020-03-02 16:00:00 11.7 31 Oeste 63 Oeste 0 -- -- 54
2020-03-02 15:00:00 11.2 26 Oeste 56 Oeste 0 -- -- 57
2020-03-02 14:00:00 11.8 26 Oeste 66 Oeste 0 -- -- 60
2020-03-02 13:00:00 11.3 25 Oeste 57 Oeste 0 -- -- 63
2020-03-02 12:00:00 11.9 27 Oeste 61 Oeste 0 -- -- 59
2020-03-02 11:00:00 10.4 24 Oeste 64 Oeste 0 -- -- 86
2020-03-02 10:00:00 9.6 19 Oeste 65 Sudoeste 1.2 -- -- 96
2020-03-02 09:00:00 9.9 23 Sudoeste 57 Sudoeste 0 -- -- 87
2020-03-02 08:00:00 9.4 21 Sudoeste 51 Sudoeste 0 -- -- 88
2020-03-02 07:00:00 8.9 18 Sudoeste 63 Sur 0 -- -- 92
2020-03-02 06:00:00 8.8 27 Sudoeste 56 Sudoeste 0.4 -- -- 95
2020-03-02 05:00:00 8.7 19 Sudoeste 49 Sudoeste 0.8 -- -- 96
2020-03-02 04:00:00 8.8 21 Sudoeste 51 Sudoeste 0.6 -- -- 93
2020-03-02 03:00:00 9.8 23 Sudoeste 60 Sudoeste 0 -- -- 88
2020-03-02 02:00:00 9.8 22 Sudoeste 49 Sudoeste 0.2 -- -- 95
2020-03-02 01:00:00 9.7 21 Sudoeste 49 Sudoeste 0 -- -- 94
2020-03-02 00:00:00 9.6 19 Sudoeste 43 Sudoeste 0 -- -- 91
2020-03-01 23:00:00 9.2 19 Sudoeste 44 Sudoeste 0 -- -- 89
2020-03-01 22:00:00 8.7 16 Sudoeste 40 Sudoeste 0 -- -- 88
2020-03-01 21:00:00 8.6 17 Sudoeste 42 Sudoeste 0 -- -- 85
2020-03-01 20:00:00 8.7 18 Sudoeste 37 Sudoeste 0 -- -- 82
2020-03-01 19:00:00 10 14 Sudoeste 35 Sudoeste 0 -- -- 79
2020-03-01 18:00:00 10.9 13 Sudoeste 40 Sudoeste 0 -- -- 74
2020-03-01 17:00:00 11.9 17 Sudoeste 38 Oeste 0 -- -- 71
2020-03-01 16:00:00 11.8 15 Sudoeste 40 Sudoeste 0 -- -- 74
2020-03-01 15:00:00 13.9 14 Sudoeste 43 Oeste 0 -- -- 67
2020-03-01 14:00:00 12.5 13 Sudoeste 48 Oeste 0 -- -- 69
2020-03-01 13:00:00 11.9 18 Sudoeste 42 Sudoeste 0 -- -- 73
2020-03-01 12:00:00 10.4 15 Oeste 45 Oeste 0 -- -- 77
2020-03-01 11:00:00 9 16 Oeste 37 Oeste 0 -- -- 82
2020-03-01 10:00:00 8.4 14 Oeste 35 Oeste 0 -- -- 87
2020-03-01 09:00:00 8.1 9 Sudoeste 36 Sudoeste 0 -- -- 90
2020-03-01 08:00:00 7.3 11 Sudoeste 34 Oeste 0 -- -- 90
2020-03-01 07:00:00 7.4 14 Oeste 32 Oeste 0 -- -- 90
2020-03-01 06:00:00 7.1 11 Oeste 32 Sudoeste 0.2 -- -- 92
2020-03-01 05:00:00 7.4 10 Oeste 33 Oeste 0 -- -- 91
2020-03-01 04:00:00 7.8 13 Oeste 30 Oeste 0 -- -- 91
2020-03-01 03:00:00 8.3 14 Oeste 35 Oeste 0.2 -- -- 94
2020-03-01 02:00:00 9.7 14 Sudoeste 35 Oeste 0 -- -- 86
2020-03-01 01:00:00 9.6 10 Oeste 30 Oeste 0 -- -- 86
2020-03-01 00:00:00 9.4 10 Oeste 37 Oeste 0 -- -- 86
2020-02-29 23:00:00 9.8 15 Sudoeste 35 Sudoeste 0 -- -- 86
2020-02-29 22:00:00 9.8 14 Sudoeste 31 Sudoeste 0 -- -- 84
2020-02-29 21:00:00 10.2 11 Sudoeste 30 Sudoeste 0 -- -- 80
2020-02-29 20:00:00 11.6 10 Sudoeste 33 Oeste 0 -- -- 73
2020-02-29 19:00:00 12.4 12 Sudoeste 33 Oeste 0 -- -- 68
2020-02-29 18:00:00 13.3 10 Sudoeste 36 Oeste 0 -- -- 63
2020-02-29 17:00:00 14.5 13 Sudoeste 39 Noroeste 0 -- -- 57
2020-02-29 16:00:00 14.7 14 Sudoeste 45 Sudoeste 0 -- -- 55
2020-02-29 15:00:00 15.4 17 Sudoeste 42 Sudoeste 0 -- -- 56
2020-02-29 14:00:00 14.9 15 Sudoeste 41 Oeste 0 -- -- 56
2020-02-29 13:00:00 14.5 16 Sudoeste 43 Sudoeste 0 -- -- 57
2020-02-29 12:00:00 13.5 16 Sudoeste 48 Oeste 0 -- -- 57
2020-02-29 11:00:00 12.2 15 Sudoeste 38 Oeste 0 -- -- 60
2020-02-29 10:00:00 9.5 13 Sudoeste 31 Sudoeste 0 -- -- 72
2020-02-29 09:00:00 6.4 10 Sudoeste 29 Sudoeste 0 -- -- 84
2020-02-29 08:00:00 5.3 12 Sudoeste 24 Sudoeste 0 -- -- 83
2020-02-29 07:00:00 6 7 Sudoeste 31 Sudoeste 0 -- -- 77
2020-02-29 06:00:00 6.6 11 Sudoeste 27 Sudoeste 0 -- -- 77
2020-02-29 05:00:00 6.9 12 Sudoeste 27 Sudoeste 0 -- -- 73
2020-02-29 04:00:00 7.7 11 Sudoeste 24 Sudoeste 0 -- -- 64
2020-02-29 03:00:00 8.4 10 Sudoeste 22 Sudoeste 0 -- -- 63
2020-02-29 02:00:00 6 8 Sudoeste 22 Sudoeste 0 -- -- 66
2020-02-29 01:00:00 4.2 3 Sur 6 Sur 0 -- -- 66
2020-02-29 00:00:00 5.5 4 Sur 11 Sudoeste 0 -- -- 61